Time;durP1;ratioP1;P1;durP2;ratioP2;P2;SDS_P1;SDS_P2;PMS_P1;PMS_P2;Temp;Humidity;BMP_temperature;BMP_pressure;BME280_temperature;BME280_humidity;BME280_pressure;Samples;Min_cycle;Max_cycle;Signal;HPM_P1;HPM_P2
2022/02/28 00:01:57;;;;;;;5.95;3.50;;;;;;;;;;5069145;28;20201;-77
2022/02/28 00:04:25;;;;;;;8.60;4.20;;;;;;;;;;5056092;28;20279;-79
2022/02/28 00:06:52;;;;;;;4.20;3.28;;;;;;;;;;5069875;28;20186;-78
2022/02/28 00:09:20;;;;;;;9.23;4.03;;;;;;;;;;5071695;28;20217;-81
2022/02/28 00:11:48;;;;;;;5.07;3.50;;;;;;;;;;5062131;28;20203;-80
2022/02/28 00:14:16;;;;;;;6.15;4.50;;;;;;;;;;5064667;28;20582;-82
2022/02/28 00:16:43;;;;;;;6.32;3.72;;;;;;;;;;5069387;28;20198;-81
2022/02/28 00:19:10;;;;;;;6.47;4.60;;;;;;;;;;5069416;28;20205;-80
2022/02/28 00:21:37;;;;;;;5.10;3.70;;;;;;;;;;5068750;28;20186;-80
2022/02/28 00:24:04;;;;;;;9.45;3.58;;;;;;;;;;5071502;28;20666;-79
2022/02/28 00:26:32;;;;;;;4.60;3.40;;;;;;;;;;5072114;28;20202;-78
2022/02/28 00:29:00;;;;;;;7.05;4.30;;;;;;;;;;5054945;28;20191;-78
2022/02/28 00:31:27;;;;;;;6.10;4.22;;;;;;;;;;5071858;28;20540;-77
2022/02/28 00:33:54;;;;;;;9.07;4.78;;;;;;;;;;5071003;28;20218;-78
2022/02/28 00:36:22;;;;;;;8.88;4.40;;;;;;;;;;5070395;28;20546;-77
2022/02/28 00:38:49;;;;;;;5.47;4.10;;;;;;;;;;5067477;28;20205;-78
2022/02/28 00:41:16;;;;;;;6.15;4.10;;;;;;;;;;5069168;28;20210;-79
2022/02/28 00:43:43;;;;;;;5.22;4.20;;;;;;;;;;5070051;28;20216;-78
2022/02/28 00:46:12;;;;;;;5.38;3.80;;;;;;;;;;5070717;28;20222;-77
2022/02/28 00:48:39;;;;;;;7.78;5.43;;;;;;;;;;5069166;28;20205;-79
2022/02/28 00:51:06;;;;;;;5.65;4.60;;;;;;;;;;5067008;28;20208;-77
2022/02/28 00:53:34;;;;;;;5.93;4.10;;;;;;;;;;5052643;28;20225;-77
2022/02/28 00:56:02;;;;;;;5.43;4.47;;;;;;;;;;5052404;28;20623;-78
2022/02/28 00:58:29;;;;;;;9.18;4.50;;;;;;;;;;5063153;28;20198;-78
2022/02/28 01:00:57;;;;;;;6.15;4.20;;;;;;;;;;5066256;28;20226;-78
2022/02/28 01:03:26;;;;;;;6.70;3.85;;;;;;;;;;5069628;28;20269;-77
2022/02/28 01:05:53;;;;;;;4.82;4.25;;;;;;;;;;5056228;28;20218;-77
2022/02/28 01:08:20;;;;;;;7.78;4.25;;;;;;;;;;5061668;28;20672;-79
2022/02/28 01:10:47;;;;;;;6.00;4.18;;;;;;;;;;5069141;28;20210;-78
2022/02/28 01:13:14;;;;;;;5.60;3.67;;;;;;;;;;5065664;28;20233;-77
2022/02/28 01:15:42;;;;;;;7.55;4.95;;;;;;;;;;5063075;28;20283;-78
2022/02/28 01:18:09;;;;;;;5.70;3.58;;;;;;;;;;5066654;28;20548;-78
2022/02/28 01:20:38;;;;;;;5.43;3.95;;;;;;;;;;5068234;28;20194;-79
2022/02/28 01:23:05;;;;;;;6.85;4.50;;;;;;;;;;5069066;28;20190;-81
2022/02/28 01:25:32;;;;;;;5.43;3.80;;;;;;;;;;5070422;28;20244;-78
2022/02/28 01:28:00;;;;;;;8.55;4.90;;;;;;;;;;5068684;28;20193;-78
2022/02/28 01:30:27;;;;;;;7.20;4.82;;;;;;;;;;5067555;28;20209;-79
2022/02/28 01:32:54;;;;;;;4.90;4.20;;;;;;;;;;5053992;28;20204;-78
2022/02/28 01:35:21;;;;;;;8.63;4.53;;;;;;;;;;5068003;28;20284;-78
2022/02/28 01:37:49;;;;;;;5.68;4.10;;;;;;;;;;5068392;28;20191;-78
2022/02/28 01:40:17;;;;;;;7.03;5.20;;;;;;;;;;5068720;28;20206;-76
2022/02/28 01:42:44;;;;;;;6.35;4.32;;;;;;;;;;5059409;28;20211;-79
2022/02/28 01:45:12;;;;;;;7.85;4.88;;;;;;;;;;5048746;28;20731;-78
2022/02/28 01:47:39;;;;;;;4.93;3.65;;;;;;;;;;5053307;28;20190;-80
2022/02/28 01:50:07;;;;;;;6.63;4.30;;;;;;;;;;5061094;28;20278;-78
2022/02/28 01:52:34;;;;;;;5.75;5.07;;;;;;;;;;5069946;28;20197;-77
2022/02/28 01:55:03;;;;;;;11.52;5.68;;;;;;;;;;5071721;28;20590;-77
2022/02/28 01:57:30;;;;;;;6.60;4.35;;;;;;;;;;5053636;28;20210;-77
2022/02/28 01:59:57;;;;;;;6.65;4.35;;;;;;;;;;5059083;28;20212;-78
2022/02/28 02:02:24;;;;;;;6.18;4.47;;;;;;;;;;5067913;28;20570;-76
2022/02/28 02:04:52;;;;;;;7.07;4.40;;;;;;;;;;5054032;28;20210;-77
2022/02/28 02:07:19;;;;;;;7.70;4.50;;;;;;;;;;5053390;28;20718;-77
2022/02/28 02:09:46;;;;;;;5.47;4.25;;;;;;;;;;5070602;28;20671;-79
2022/02/28 02:12:14;;;;;;;6.22;4.68;;;;;;;;;;5071844;28;20202;-79
2022/02/28 02:14:42;;;;;;;5.53;3.85;;;;;;;;;;5072972;28;20221;-79
2022/02/28 02:17:09;;;;;;;6.70;4.65;;;;;;;;;;5073463;28;20202;-77
2022/02/28 02:19:39;;;;;;;6.75;4.55;;;;;;;;;;5074115;28;20205;-78
2022/02/28 02:22:08;;;;;;;7.18;4.65;;;;;;;;;;5072386;28;20281;-78
2022/02/28 02:24:35;;;;;;;6.90;4.78;;;;;;;;;;5064803;28;20232;-79
2022/02/28 02:27:03;;;;;;;5.03;4.13;;;;;;;;;;5055519;28;20206;-78
2022/02/28 02:29:30;;;;;;;6.10;4.30;;;;;;;;;;5066410;28;20202;-77
2022/02/28 02:31:57;;;;;;;5.25;3.92;;;;;;;;;;5070934;28;20194;-77
2022/02/28 02:34:24;;;;;;;6.28;4.80;;;;;;;;;;5069850;28;20229;-78
2022/02/28 02:36:51;;;;;;;6.82;5.10;;;;;;;;;;5052022;28;20211;-78
2022/02/28 02:39:20;;;;;;;7.30;5.10;;;;;;;;;;5052490;28;20619;-79
2022/02/28 02:41:47;;;;;;;7.93;5.25;;;;;;;;;;5053182;28;20198;-77
2022/02/28 02:44:14;;;;;;;6.72;4.50;;;;;;;;;;5052655;28;20225;-78
2022/02/28 02:46:45;;;;;;;8.15;5.32;;;;;;;;;;5053563;28;20202;-79
2022/02/28 02:49:14;;;;;;;7.40;4.70;;;;;;;;;;5054702;28;20203;-77
2022/02/28 02:51:41;;;;;;;7.82;5.03;;;;;;;;;;5055951;28;20202;-77
2022/02/28 02:54:08;;;;;;;5.28;4.60;;;;;;;;;;5060054;28;20230;-78
2022/02/28 02:56:37;;;;;;;5.85;4.35;;;;;;;;;;5071111;28;20197;-79
2022/02/28 02:59:04;;;;;;;5.45;4.35;;;;;;;;;;5066117;28;20735;-78
2022/02/28 03:01:31;;;;;;;9.93;5.57;;;;;;;;;;5055158;28;20532;-78
2022/02/28 03:03:58;;;;;;;9.52;4.90;;;;;;;;;;5056080;28;20289;-78
2022/02/28 03:06:26;;;;;;;8.45;5.18;;;;;;;;;;5072604;28;20206;-79
2022/02/28 03:08:53;;;;;;;6.90;5.20;;;;;;;;;;5059788;28;20210;-79
2022/02/28 03:11:20;;;;;;;5.78;4.85;;;;;;;;;;5069837;28;20198;-77
2022/02/28 03:13:49;;;;;;;5.97;4.13;;;;;;;;;;5069277;28;20225;-78
2022/02/28 03:16:16;;;;;;;6.60;5.05;;;;;;;;;;5070307;28;20579;-78
2022/02/28 03:18:43;;;;;;;5.68;5.05;;;;;;;;;;5071450;28;20206;-78
2022/02/28 03:21:10;;;;;;;9.18;5.00;;;;;;;;;;5072562;28;20205;-79
2022/02/28 03:23:37;;;;;;;8.38;4.70;;;;;;;;;;5072812;28;20221;-77
2022/02/28 03:26:05;;;;;;;7.05;4.25;;;;;;;;;;5061439;28;20245;-77
2022/02/28 03:28:32;;;;;;;8.38;4.68;;;;;;;;;;5054849;28;20210;-77
2022/02/28 03:31:01;;;;;;;8.93;4.50;;;;;;;;;;5061157;28;20190;-78
2022/02/28 03:33:28;;;;;;;6.28;4.60;;;;;;;;;;5069869;28;20259;-78
2022/02/28 03:35:55;;;;;;;7.60;4.78;;;;;;;;;;5070235;28;20566;-78
2022/02/28 03:38:22;;;;;;;6.60;4.60;;;;;;;;;;5071739;28;20210;-79
2022/02/28 03:40:50;;;;;;;5.75;4.85;;;;;;;;;;5070819;28;20197;-78
2022/02/28 03:43:17;;;;;;;6.82;4.82;;;;;;;;;;5069895;28;20292;-78
2022/02/28 03:45:45;;;;;;;7.97;5.70;;;;;;;;;;5072451;28;20248;-78
2022/02/28 03:48:14;;;;;;;7.45;5.25;;;;;;;;;;5062091;28;20214;-78
2022/02/28 03:50:41;;;;;;;8.15;5.95;;;;;;;;;;5053369;28;20260;-78
2022/02/28 03:53:09;;;;;;;6.30;5.05;;;;;;;;;;5066844;28;20224;-78
2022/02/28 03:55:36;;;;;;;7.75;5.63;;;;;;;;;;5069757;28;20232;-77
2022/02/28 03:58:03;;;;;;;11.23;5.60;;;;;;;;;;5068178;28;20198;-78
2022/02/28 04:00:30;;;;;;;7.60;5.53;;;;;;;;;;5070562;28;20208;-76
2022/02/28 04:02:57;;;;;;;8.20;5.45;;;;;;;;;;5059303;28;20190;-78
2022/02/28 04:05:26;;;;;;;10.18;5.47;;;;;;;;;;5076241;28;20225;-78
2022/02/28 04:07:54;;;;;;;6.28;4.60;;;;;;;;;;5071819;28;20198;-78
2022/02/28 04:10:21;;;;;;;8.07;5.03;;;;;;;;;;5063371;28;20285;-77
2022/02/28 04:12:48;;;;;;;5.55;4.63;;;;;;;;;;5068080;28;20190;-78
2022/02/28 04:15:15;;;;;;;6.00;4.40;;;;;;;;;;5068007;28;20226;-78
2022/02/28 04:17:43;;;;;;;7.28;4.78;;;;;;;;;;5067344;28;20210;-79
2022/02/28 04:20:10;;;;;;;7.75;5.63;;;;;;;;;;5070833;28;20202;-78
2022/02/28 04:22:39;;;;;;;11.38;6.07;;;;;;;;;;5071310;28;20789;-78
2022/02/28 04:25:07;;;;;;;7.32;5.05;;;;;;;;;;5053451;28;20727;-78
2022/02/28 04:27:34;;;;;;;6.47;5.20;;;;;;;;;;5055173;28;20198;-78
2022/02/28 04:30:01;;;;;;;6.93;5.32;;;;;;;;;;5068741;28;20190;-79
2022/02/28 04:32:28;;;;;;;6.53;5.32;;;;;;;;;;5067578;28;20210;-78
2022/02/28 04:34:55;;;;;;;11.57;5.50;;;;;;;;;;5068464;28;20222;-78
2022/02/28 04:37:23;;;;;;;8.30;4.95;;;;;;;;;;5064583;28;20194;-77
2022/02/28 04:39:51;;;;;;;6.72;5.00;;;;;;;;;;5070156;28;20194;-77
2022/02/28 04:42:18;;;;;;;7.70;5.95;;;;;;;;;;5070225;28;20198;-77
2022/02/28 04:44:45;;;;;;;7.82;5.22;;;;;;;;;;5060892;28;20222;-77
2022/02/28 04:47:13;;;;;;;8.80;5.93;;;;;;;;;;5065575;28;20544;-77
2022/02/28 04:49:40;;;;;;;11.38;5.50;;;;;;;;;;5068515;28;20205;-77
2022/02/28 04:52:07;;;;;;;6.50;5.45;;;;;;;;;;5062853;28;20190;-78
2022/02/28 04:54:34;;;;;;;7.43;5.60;;;;;;;;;;5070329;28;20768;-78
2022/02/28 04:57:02;;;;;;;10.80;6.25;;;;;;;;;;5066501;28;20197;-77
2022/02/28 04:59:30;;;;;;;6.00;5.00;;;;;;;;;;5063867;28;20190;-77
2022/02/28 05:01:57;;;;;;;8.52;5.35;;;;;;;;;;5055711;28;20205;-78
2022/02/28 05:04:24;;;;;;;6.47;4.72;;;;;;;;;;5064121;28;20205;-76
2022/02/28 05:06:51;;;;;;;7.50;5.10;;;;;;;;;;5065039;28;20210;-78
2022/02/28 05:09:18;;;;;;;6.50;4.70;;;;;;;;;;5051485;28;20214;-77
2022/02/28 05:11:45;;;;;;;7.13;5.35;;;;;;;;;;5053309;28;20194;-76
2022/02/28 05:14:14;;;;;;;8.55;5.65;;;;;;;;;;5070313;28;20674;-76
2022/02/28 05:16:42;;;;;;;7.00;4.93;;;;;;;;;;5070359;28;20204;-77
2022/02/28 05:19:09;;;;;;;8.32;5.40;;;;;;;;;;5070213;28;20600;-77
2022/02/28 05:21:36;;;;;;;9.80;6.35;;;;;;;;;;5064416;28;20213;-77
2022/02/28 05:24:04;;;;;;;6.80;5.15;;;;;;;;;;5066668;28;20626;-78
2022/02/28 05:26:31;;;;;;;8.32;5.25;;;;;;;;;;5061183;28;20670;-78
2022/02/28 05:28:58;;;;;;;11.30;5.53;;;;;;;;;;5050016;28;20203;-77
2022/02/28 05:31:26;;;;;;;9.73;6.07;;;;;;;;;;5050435;28;20256;-77
2022/02/28 05:33:53;;;;;;;7.50;5.55;;;;;;;;;;5051025;28;20199;-78
2022/02/28 05:36:20;;;;;;;7.28;4.95;;;;;;;;;;5052071;28;20198;-78
2022/02/28 05:38:48;;;;;;;7.50;5.15;;;;;;;;;;5052147;28;20206;-77
2022/02/28 05:41:15;;;;;;;6.60;5.25;;;;;;;;;;5051662;28;20194;-77
2022/02/28 05:43:42;;;;;;;7.20;5.20;;;;;;;;;;5059431;28;20613;-78
2022/02/28 05:46:11;;;;;;;6.70;5.45;;;;;;;;;;5063678;28;20659;-79
2022/02/28 05:48:40;;;;;;;6.68;5.80;;;;;;;;;;5069200;28;20198;-77
2022/02/28 05:51:07;;;;;;;9.32;5.80;;;;;;;;;;5051877;28;20206;-76
2022/02/28 05:53:34;;;;;;;7.72;5.30;;;;;;;;;;5050989;28;20211;-78
2022/02/28 05:56:01;;;;;;;9.00;5.80;;;;;;;;;;5067549;28;20228;-76
2022/02/28 05:58:28;;;;;;;9.73;4.90;;;;;;;;;;5065357;28;20280;-76
2022/02/28 06:00:55;;;;;;;8.57;5.70;;;;;;;;;;5051655;28;20206;-77
2022/02/28 06:03:22;;;;;;;9.35;6.20;;;;;;;;;;5061757;28;20198;-76
2022/02/28 06:05:51;;;;;;;12.43;6.82;;;;;;;;;;5066987;28;20236;-76
2022/02/28 06:08:18;;;;;;;5.82;4.97;;;;;;;;;;5063602;28;20198;-77
2022/02/28 06:10:45;;;;;;;9.85;5.45;;;;;;;;;;5064475;28;20499;-76
2022/02/28 06:13:13;;;;;;;9.38;6.20;;;;;;;;;;5049401;28;20195;-78
2022/02/28 06:15:41;;;;;;;7.88;5.35;;;;;;;;;;5048744;28;20222;-77
2022/02/28 06:18:09;;;;;;;8.52;5.97;;;;;;;;;;5051585;28;20205;-77
2022/02/28 06:20:36;;;;;;;6.90;5.65;;;;;;;;;;5050301;28;20195;-81
2022/02/28 06:23:05;;;;;;;7.75;6.05;;;;;;;;;;5061219;28;20208;-76
2022/02/28 06:25:32;;;;;;;8.70;5.68;;;;;;;;;;5050632;28;20232;-77
2022/02/28 06:27:59;;;;;;;8.55;5.80;;;;;;;;;;5058801;28;20195;-78
2022/02/28 06:30:26;;;;;;;8.00;6.20;;;;;;;;;;5063959;28;20287;-77
2022/02/28 06:32:54;;;;;;;6.93;5.93;;;;;;;;;;5069379;28;20197;-76
2022/02/28 06:35:21;;;;;;;8.07;6.10;;;;;;;;;;5065001;28;20238;-76
2022/02/28 06:37:48;;;;;;;7.85;5.60;;;;;;;;;;5066766;28;20540;-77
2022/02/28 06:40:16;;;;;;;8.88;5.35;;;;;;;;;;5069963;28;20286;-78
2022/02/28 06:42:43;;;;;;;9.10;6.43;;;;;;;;;;5070664;28;20194;-77
2022/02/28 06:45:11;;;;;;;8.43;5.80;;;;;;;;;;5071157;28;20210;-77
2022/02/28 06:47:38;;;;;;;9.10;6.28;;;;;;;;;;5071564;28;20205;-77
2022/02/28 06:50:06;;;;;;;8.63;5.80;;;;;;;;;;5053080;28;20221;-77
2022/02/28 06:52:33;;;;;;;12.27;6.35;;;;;;;;;;5052155;28;20281;-77
2022/02/28 06:55:00;;;;;;;6.82;5.80;;;;;;;;;;5057886;28;20687;-77
2022/02/28 06:57:29;;;;;;;9.05;6.20;;;;;;;;;;5059283;28;20862;-77
2022/02/28 06:59:56;;;;;;;6.50;5.35;;;;;;;;;;5069146;28;20191;-77
2022/02/28 07:02:23;;;;;;;8.63;5.25;;;;;;;;;;5065682;28;20202;-77
2022/02/28 07:04:50;;;;;;;11.05;6.13;;;;;;;;;;5068107;28;20222;-77
2022/02/28 07:07:18;;;;;;;8.48;6.60;;;;;;;;;;5070427;28;20201;-77
2022/02/28 07:09:45;;;;;;;11.40;6.22;;;;;;;;;;5065527;28;20191;-76
2022/02/28 07:12:13;;;;;;;8.20;6.28;;;;;;;;;;5065794;28;20199;-76
2022/02/28 07:14:42;;;;;;;7.72;6.05;;;;;;;;;;5052280;28;20227;-76
2022/02/28 07:17:09;;;;;;;9.02;6.45;;;;;;;;;;5068722;28;20186;-76
2022/02/28 07:19:36;;;;;;;9.00;6.30;;;;;;;;;;5067920;28;20186;-77
2022/02/28 07:22:04;;;;;;;10.70;6.30;;;;;;;;;;5071842;28;20546;-77
2022/02/28 07:24:31;;;;;;;9.32;6.60;;;;;;;;;;5067787;28;20226;-77
2022/02/28 07:26:58;;;;;;;14.23;6.68;;;;;;;;;;5052842;28;20194;-78
2022/02/28 07:29:25;;;;;;;10.40;6.10;;;;;;;;;;5054628;28;20292;-77
2022/02/28 07:31:54;;;;;;;9.15;5.80;;;;;;;;;;5052672;28;20536;-78
2022/02/28 07:34:21;;;;;;;7.80;5.72;;;;;;;;;;5064820;28;20217;-79
2022/02/28 07:36:49;;;;;;;7.88;5.45;;;;;;;;;;5067046;28;20226;-81
2022/02/28 07:39:16;;;;;;;8.93;6.35;;;;;;;;;;5053737;28;20205;-79
2022/02/28 07:41:45;;;;;;;8.52;6.00;;;;;;;;;;5049899;28;20190;-79
2022/02/28 07:44:13;;;;;;;7.53;6.05;;;;;;;;;;5052116;28;20202;-81
2022/02/28 07:46:40;;;;;;;7.78;6.45;;;;;;;;;;5052512;28;20285;-78
2022/02/28 07:49:08;;;;;;;10.13;5.82;;;;;;;;;;5052606;28;20202;-78
2022/02/28 07:51:35;;;;;;;9.60;6.35;;;;;;;;;;5052540;28;20202;-79
2022/02/28 07:54:03;;;;;;;8.50;5.88;;;;;;;;;;5053695;28;20210;-78
2022/02/28 07:56:30;;;;;;;7.53;5.90;;;;;;;;;;5060651;28;20271;-80
2022/02/28 07:58:57;;;;;;;6.35;5.70;;;;;;;;;;5067850;28;20203;-77
2022/02/28 08:01:24;;;;;;;8.98;6.05;;;;;;;;;;5066063;28;20691;-78
2022/02/28 08:03:51;;;;;;;9.48;6.20;;;;;;;;;;5050654;28;20187;-77
2022/02/28 08:06:20;;;;;;;10.02;6.00;;;;;;;;;;5050181;28;20198;-79
2022/02/28 08:08:47;;;;;;;7.97;6.50;;;;;;;;;;5061833;28;20194;-80
2022/02/28 08:11:14;;;;;;;10.18;6.13;;;;;;;;;;5064925;28;20204;-80
2022/02/28 08:13:43;;;;;;;8.23;5.85;;;;;;;;;;5053168;28;20214;-79
2022/02/28 08:16:10;;;;;;;9.15;6.57;;;;;;;;;;5052150;28;20223;-77
2022/02/28 08:18:37;;;;;;;9.77;6.53;;;;;;;;;;5060596;28;20228;-78
2022/02/28 08:21:05;;;;;;;8.68;6.53;;;;;;;;;;5067042;28;20190;-81
2022/02/28 08:23:33;;;;;;;9.07;6.60;;;;;;;;;;5058500;28;20199;-79
2022/02/28 08:26:00;;;;;;;9.32;7.22;;;;;;;;;;5050050;28;20683;-81
2022/02/28 08:28:28;;;;;;;7.68;6.20;;;;;;;;;;5052897;28;20191;-78
2022/02/28 08:30:55;;;;;;;7.32;5.63;;;;;;;;;;5050668;28;20226;-79
2022/02/28 08:33:23;;;;;;;10.80;6.65;;;;;;;;;;5050938;28;20200;-78
2022/02/28 08:35:50;;;;;;;10.95;6.35;;;;;;;;;;5051359;28;20230;-80
2022/02/28 08:38:18;;;;;;;7.55;6.10;;;;;;;;;;5057382;28;20202;-81
2022/02/28 08:40:46;;;;;;;9.88;6.35;;;;;;;;;;5068553;28;20198;-78
2022/02/28 08:43:13;;;;;;;10.43;6.57;;;;;;;;;;5062326;28;20592;-83
2022/02/28 08:45:40;;;;;;;8.07;6.53;;;;;;;;;;5050451;28;20221;-80
2022/02/28 08:48:08;;;;;;;7.63;6.80;;;;;;;;;;5049583;28;20249;-79
2022/02/28 08:50:35;;;;;;;9.70;6.65;;;;;;;;;;5066165;28;20205;-78
2022/02/28 08:53:02;;;;;;;8.63;6.57;;;;;;;;;;5070678;28;20194;-78
2022/02/28 08:55:30;;;;;;;8.15;6.32;;;;;;;;;;5066808;28;20218;-77
2022/02/28 08:57:58;;;;;;;10.57;7.65;;;;;;;;;;5067612;28;20300;-79
2022/02/28 09:00:25;;;;;;;7.60;6.45;;;;;;;;;;5068636;28;20190;-76
2022/02/28 09:02:52;;;;;;;7.18;5.80;;;;;;;;;;5065950;28;20201;-78
2022/02/28 09:05:20;;;;;;;9.13;6.57;;;;;;;;;;5067440;28;20690;-79
2022/02/28 09:07:47;;;;;;;9.55;7.13;;;;;;;;;;5067649;28;20198;-79
2022/02/28 09:10:14;;;;;;;15.15;6.57;;;;;;;;;;5058975;28;20567;-78
2022/02/28 09:12:44;;;;;;;9.40;6.47;;;;;;;;;;5061751;28;20644;-79
2022/02/28 09:15:13;;;;;;;9.20;6.38;;;;;;;;;;5068826;28;20221;-79
2022/02/28 09:17:40;;;;;;;9.55;7.20;;;;;;;;;;5066844;28;20194;-78
2022/02/28 09:20:08;;;;;;;8.75;6.78;;;;;;;;;;5068562;28;20576;-78
2022/02/28 09:22:35;;;;;;;10.70;6.60;;;;;;;;;;5050208;28;20199;-77
2022/02/28 09:25:02;;;;;;;8.38;6.78;;;;;;;;;;5050301;28;20227;-77
2022/02/28 09:27:29;;;;;;;9.07;6.45;;;;;;;;;;5050390;28;20193;-77
2022/02/28 09:29:57;;;;;;;9.45;6.75;;;;;;;;;;5050080;28;20199;-77
2022/02/28 09:32:25;;;;;;;8.57;6.57;;;;;;;;;;5060912;28;20275;-77
2022/02/28 09:34:52;;;;;;;8.85;7.20;;;;;;;;;;5067596;28;20348;-78
2022/02/28 09:37:20;;;;;;;10.57;7.18;;;;;;;;;;5064007;28;20221;-75
2022/02/28 09:39:47;;;;;;;9.00;6.13;;;;;;;;;;5069704;28;20284;-76
2022/02/28 09:42:15;;;;;;;8.38;6.97;;;;;;;;;;5069785;28;20198;-77
2022/02/28 09:44:43;;;;;;;9.82;7.25;;;;;;;;;;5068940;28;20230;-75
2022/02/28 09:47:10;;;;;;;8.73;7.03;;;;;;;;;;5068529;28;20651;-74
2022/02/28 09:49:39;;;;;;;10.75;7.53;;;;;;;;;;5051668;28;20198;-76
2022/02/28 09:52:06;;;;;;;8.75;6.80;;;;;;;;;;5066685;28;20198;-75
2022/02/28 09:54:34;;;;;;;10.18;7.13;;;;;;;;;;5065148;28;20210;-75
2022/02/28 09:57:01;;;;;;;9.35;6.68;;;;;;;;;;5048136;28;20218;-78
2022/02/28 09:59:28;;;;;;;9.40;7.05;;;;;;;;;;5048208;28;20190;-79
2022/02/28 10:01:55;;;;;;;11.20;7.85;;;;;;;;;;5049752;28;20199;-77
2022/02/28 10:04:22;;;;;;;9.18;7.00;;;;;;;;;;5058933;28;20213;-78
2022/02/28 10:06:51;;;;;;;11.07;7.07;;;;;;;;;;5061424;28;20198;-76
2022/02/28 10:09:19;;;;;;;12.02;7.63;;;;;;;;;;5067298;28;20202;-75
2022/02/28 10:11:48;;;;;;;9.27;6.85;;;;;;;;;;5063721;28;20802;-74
2022/02/28 10:14:16;;;;;;;10.57;7.55;;;;;;;;;;5064115;28;20214;-76
2022/02/28 10:16:44;;;;;;;13.52;8.40;;;;;;;;;;5054883;28;20214;-77
2022/02/28 10:19:12;;;;;;;9.63;6.97;;;;;;;;;;5070964;28;20194;-76
2022/02/28 10:21:42;;;;;;;10.60;7.70;;;;;;;;;;5072673;28;20190;-78
2022/02/28 10:24:11;;;;;;;11.68;7.38;;;;;;;;;;5060636;28;20566;-78
2022/02/28 10:26:40;;;;;;;10.95;7.55;;;;;;;;;;5058924;28;20206;-78
2022/02/28 10:29:07;;;;;;;9.80;7.53;;;;;;;;;;5075043;28;20198;-78
2022/02/28 10:31:37;;;;;;;12.40;8.93;;;;;;;;;;5070174;28;20198;-77
2022/02/28 10:34:12;;;;;;;10.48;7.70;;;;;;;;;;5068523;28;20302;-77
2022/02/28 10:36:41;;;;;;;11.13;7.28;;;;;;;;;;5072906;28;20564;-79
2022/02/28 10:39:10;;;;;;;12.55;7.60;;;;;;;;;;5060440;28;20552;-78
2022/02/28 10:41:40;;;;;;;9.87;7.70;;;;;;;;;;5070357;28;20252;-75
2022/02/28 10:44:09;;;;;;;9.35;7.00;;;;;;;;;;5064682;28;20550;-78
2022/02/28 10:46:42;;;;;;;10.65;7.18;;;;;;;;;;5073259;28;20213;-78
2022/02/28 10:49:11;;;;;;;10.52;7.45;;;;;;;;;;5073905;28;20198;-77
2022/02/28 10:51:53;;;;;;;12.90;7.88;;;;;;;;;;5074031;28;20285;-77
2022/02/28 10:54:22;;;;;;;7.80;6.28;;;;;;;;;;5069258;28;20229;-77
2022/02/28 10:56:52;;;;;;;12.32;7.72;;;;;;;;;;5064214;28;20226;-78
2022/02/28 10:59:20;;;;;;;8.07;6.90;;;;;;;;;;5056590;28;20214;-77
2022/02/28 11:01:48;;;;;;;8.32;6.30;;;;;;;;;;5050765;28;20203;-78
2022/02/28 11:04:15;;;;;;;11.88;8.38;;;;;;;;;;5052754;28;20223;-80
2022/02/28 11:06:43;;;;;;;9.98;7.57;;;;;;;;;;5057779;28;20281;-77
2022/02/28 11:09:11;;;;;;;11.18;8.20;;;;;;;;;;5062560;28;20205;-77
2022/02/28 11:11:38;;;;;;;10.30;8.25;;;;;;;;;;5064808;28;20208;-77
2022/02/28 11:14:06;;;;;;;11.00;7.78;;;;;;;;;;5068223;28;20206;-78
2022/02/28 11:16:33;;;;;;;10.15;7.50;;;;;;;;;;5067887;28;20244;-77
2022/02/28 11:19:04;;;;;;;15.05;7.85;;;;;;;;;;5052940;28;20200;-78
2022/02/28 11:21:33;;;;;;;9.23;6.55;;;;;;;;;;5069700;28;20263;-77
2022/02/28 11:24:00;;;;;;;10.80;7.43;;;;;;;;;;5072280;28;20251;-78
2022/02/28 11:26:27;;;;;;;15.35;8.45;;;;;;;;;;5065818;28;20217;-77
2022/02/28 11:28:55;;;;;;;10.10;7.90;;;;;;;;;;5065960;28;20202;-77
2022/02/28 11:31:25;;;;;;;13.40;7.50;;;;;;;;;;5067513;28;20440;-78
2022/02/28 11:33:52;;;;;;;9.15;8.13;;;;;;;;;;5051654;28;20830;-78
2022/02/28 11:36:20;;;;;;;11.67;7.70;;;;;;;;;;5049216;28;20215;-77
2022/02/28 11:38:47;;;;;;;9.13;7.13;;;;;;;;;;5052072;28;20807;-78
2022/02/28 11:41:18;;;;;;;9.70;7.23;;;;;;;;;;5052610;28;20406;-80
2022/02/28 11:43:47;;;;;;;9.13;7.37;;;;;;;;;;5064192;28;20800;-84
2022/02/28 11:46:15;;;;;;;9.10;7.27;;;;;;;;;;5060518;28;20487;-85
2022/02/28 11:48:46;;;;;;;9.05;6.85;;;;;;;;;;5067586;28;20453;-81
2022/02/28 11:51:22;;;;;;;12.47;8.27;;;;;;;;;;5062159;28;20297;-82
2022/02/28 11:53:50;;;;;;;10.83;7.60;;;;;;;;;;5050636;28;20507;-80
2022/02/28 11:56:34;;;;;;;9.40;7.80;;;;;;;;;;5050007;28;20986;-79
2022/02/28 11:59:03;;;;;;;13.43;8.80;;;;;;;;;;5050491;28;20930;-80
2022/02/28 12:01:32;;;;;;;9.53;7.67;;;;;;;;;;5053552;28;20479;-79
2022/02/28 12:04:15;;;;;;;13.80;8.50;;;;;;;;;;5056229;28;20467;-78
2022/02/28 12:06:50;;;;;;;10.00;7.90;;;;;;;;;;5066546;28;20862;-80
2022/02/28 12:09:32;;;;;;;13.30;8.50;;;;;;;;;;5066302;28;20463;-78
2022/02/28 12:12:14;;;;;;;13.10;7.00;;;;;;;;;;5061073;28;20964;-78
2022/02/28 12:14:56;;;;;;;9.70;7.23;;;;;;;;;;5058360;28;20503;-80
2022/02/28 12:17:33;;;;;;;10.33;7.57;;;;;;;;;;5067716;28;20839;-80
2022/02/28 12:20:14;;;;;;;16.10;8.70;;;;;;;;;;5064689;28;20447;-79
2022/02/28 12:22:58;;;;;;;9.80;7.43;;;;;;;;;;5067845;28;20444;-80
2022/02/28 12:25:32;;;;;;;12.87;8.47;;;;;;;;;;5066652;28;20503;-79
2022/02/28 12:27:59;;;;;;;10.37;7.43;;;;;;;;;;5068365;28;20483;-80
2022/02/28 12:30:43;;;;;;;9.87;6.50;;;;;;;;;;5071072;28;20811;-78
2022/02/28 12:33:12;;;;;;;11.77;8.70;;;;;;;;;;5051695;28;20983;-78
2022/02/28 12:35:50;;;;;;;11.53;8.10;;;;;;;;;;5070713;28;20492;-78
2022/02/28 12:38:18;;;;;;;8.40;6.97;;;;;;;;;;5058780;28;20484;-79
2022/02/28 12:40:48;;;;;;;14.57;7.73;;;;;;;;;;5051474;28;20452;-79
2022/02/28 12:43:16;;;;;;;10.00;7.83;;;;;;;;;;5064045;28;20452;-79
2022/02/28 12:45:43;;;;;;;10.00;7.10;;;;;;;;;;5062056;28;20476;-79
2022/02/28 12:48:12;;;;;;;10.57;7.10;;;;;;;;;;5067742;28;20455;-77
2022/02/28 12:50:45;;;;;;;11.90;6.73;;;;;;;;;;5051886;28;20453;-77
2022/02/28 12:53:14;;;;;;;11.30;7.70;;;;;;;;;;5049451;28;20445;-78
2022/02/28 12:55:50;;;;;;;9.63;7.53;;;;;;;;;;5057337;28;21010;-81
2022/02/28 12:58:20;;;;;;;8.53;7.40;;;;;;;;;;5072099;28;20478;-81
2022/02/28 13:00:47;;;;;;;9.70;7.67;;;;;;;;;;5071485;28;20448;-81
2022/02/28 13:03:14;;;;;;;9.00;7.27;;;;;;;;;;5056493;28;20966;-84
2022/02/28 13:05:41;;;;;;;10.70;7.03;;;;;;;;;;5059050;28;20462;-83
2022/02/28 13:08:10;;;;;;;10.27;7.87;;;;;;;;;;5066231;28;20464;-81
2022/02/28 13:10:38;;;;;;;10.37;7.70;;;;;;;;;;5066897;28;20506;-81
2022/02/28 13:13:07;;;;;;;11.33;7.67;;;;;;;;;;5061495;28;20449;-79
2022/02/28 13:15:34;;;;;;;10.03;6.30;;;;;;;;;;5050483;28;20476;-77
2022/02/28 13:18:02;;;;;;;9.37;7.27;;;;;;;;;;5050342;28;20476;-77
2022/02/28 13:20:29;;;;;;;13.40;8.10;;;;;;;;;;5064092;28;20448;-79
2022/02/28 13:22:57;;;;;;;10.83;7.30;;;;;;;;;;5063974;28;20552;-84
2022/02/28 13:25:24;;;;;;;10.73;8.10;;;;;;;;;;5070173;28;20981;-78
2022/02/28 13:27:52;;;;;;;8.90;7.30;;;;;;;;;;5069820;28;20533;-78
2022/02/28 13:30:20;;;;;;;10.33;7.00;;;;;;;;;;5066443;28;20956;-78
2022/02/28 13:32:47;;;;;;;9.50;7.30;;;;;;;;;;5068759;28;20812;-79
2022/02/28 13:35:14;;;;;;;9.97;7.70;;;;;;;;;;5068130;28;20487;-79
2022/02/28 13:37:41;;;;;;;9.83;7.37;;;;;;;;;;5070172;28;20479;-78
2022/02/28 13:40:09;;;;;;;9.27;7.33;;;;;;;;;;5069440;28;20447;-78
2022/02/28 13:42:45;;;;;;;11.33;7.23;;;;;;;;;;5070648;28;20446;-78
2022/02/28 13:45:19;;;;;;;13.30;8.03;;;;;;;;;;5065782;28;20509;-79
2022/02/28 13:53:08;;;;;;;10.90;7.80;;;;;;;;;;5073753;28;20240;-79
2022/02/28 13:55:35;;;;;;;9.30;7.83;;;;;;;;;;5063444;28;20908;-77
2022/02/28 13:58:02;;;;;;;8.80;7.20;;;;;;;;;;5053785;28;20475;-78
2022/02/28 14:00:31;;;;;;;10.07;7.80;;;;;;;;;;5054081;28;20504;-78
2022/02/28 14:02:59;;;;;;;9.90;7.80;;;;;;;;;;5064147;28;20490;-77
2022/02/28 14:05:27;;;;;;;11.40;8.17;;;;;;;;;;5070500;28;20824;-77
2022/02/28 14:07:56;;;;;;;9.00;7.20;;;;;;;;;;5072008;28;20436;-78
2022/02/28 14:10:25;;;;;;;8.60;7.07;;;;;;;;;;5063004;28;20441;-77
2022/02/28 14:12:52;;;;;;;7.70;6.60;;;;;;;;;;5054059;28;20941;-78
2022/02/28 14:15:23;;;;;;;8.00;6.70;;;;;;;;;;5054071;28;20824;-76
2022/02/28 14:17:54;;;;;;;11.80;7.37;;;;;;;;;;5066331;28;20484;-77
2022/02/28 14:20:23;;;;;;;11.70;8.00;;;;;;;;;;5074258;28;20444;-78
2022/02/28 14:23:05;;;;;;;9.23;7.10;;;;;;;;;;5070519;28;20448;-77
2022/02/28 14:25:33;;;;;;;8.20;7.17;;;;;;;;;;5069597;28;20479;-78
2022/02/28 14:28:02;;;;;;;8.60;6.90;;;;;;;;;;5062831;28;20470;-79
2022/02/28 14:30:29;;;;;;;8.83;7.37;;;;;;;;;;5073004;28;20523;-78
2022/02/28 14:33:06;;;;;;;10.23;6.90;;;;;;;;;;5065851;28;20454;-77
2022/02/28 14:35:34;;;;;;;10.60;7.33;;;;;;;;;;5072385;28;20466;-79
2022/02/28 14:38:02;;;;;;;11.67;7.00;;;;;;;;;;5068459;28;20854;-77
2022/02/28 14:40:29;;;;;;;12.47;7.03;;;;;;;;;;5068229;28;20455;-79
2022/02/28 14:42:56;;;;;;;9.70;7.47;;;;;;;;;;5072277;28;20937;-79
2022/02/28 14:45:24;;;;;;;10.90;8.17;;;;;;;;;;5054863;28;20497;-79
2022/02/28 14:47:51;;;;;;;10.17;7.20;;;;;;;;;;5051623;28;20444;-79
2022/02/28 14:50:20;;;;;;;7.53;6.27;;;;;;;;;;5056049;28;20464;-80
2022/02/28 14:52:47;;;;;;;9.23;7.13;;;;;;;;;;5069184;28;20455;-79